createdAt,value
2023-04-18T00:00:13.643Z,218.38
2023-04-18T00:01:13.607Z,219.09
2023-04-18T00:02:13.712Z,216.10
2023-04-18T00:03:13.847Z,215.27
2023-04-18T00:04:14.273Z,218.43
2023-04-18T00:05:13.706Z,219.11
2023-04-18T00:06:13.615Z,216.32
2023-04-18T00:07:13.570Z,216.67
2023-04-18T00:08:13.607Z,217.03
2023-04-18T00:09:13.587Z,216.80
2023-04-18T00:10:13.574Z,216.99
2023-04-18T00:11:13.540Z,214.72
2023-04-18T00:12:13.590Z,217.45
2023-04-18T00:13:13.562Z,217.21
2023-04-18T00:14:13.674Z,217.86
2023-04-18T00:15:13.630Z,216.81
2023-04-18T00:16:13.665Z,216.40
2023-04-18T00:17:13.702Z,213.39
2023-04-18T00:18:13.644Z,216.45
2023-04-18T00:19:13.704Z,216.12
2023-04-18T00:20:13.747Z,214.38
2023-04-18T00:21:13.739Z,213.73
2023-04-18T00:22:13.785Z,214.38
2023-04-18T00:23:13.819Z,215.38
2023-04-18T00:24:14.073Z,216.59
2023-04-18T00:25:13.879Z,215.90
2023-04-18T00:26:13.905Z,214.93
2023-04-18T00:27:13.960Z,215.06
2023-04-18T00:28:14.006Z,214.29
2023-04-18T00:29:14.006Z,214.72
2023-04-18T00:30:14.009Z,213.99
2023-04-18T00:31:14.073Z,217.64
2023-04-18T00:32:14.080Z,213.20
2023-04-18T00:33:14.092Z,214.66
2023-04-18T00:34:14.451Z,218.00
2023-04-18T00:35:14.180Z,217.08
2023-04-18T00:36:14.189Z,216.03
2023-04-18T00:37:14.224Z,216.30
2023-04-18T00:38:14.272Z,213.58
2023-04-18T00:39:14.288Z,212.39
2023-04-18T00:40:14.337Z,214.67
2023-04-18T00:41:14.320Z,217.38
2023-04-18T00:42:14.405Z,213.63
2023-04-18T00:43:14.384Z,213.71
2023-04-18T00:44:14.706Z,213.76
2023-04-18T00:45:14.446Z,214.14
2023-04-18T00:46:14.541Z,211.80
2023-04-18T00:47:14.489Z,211.87
2023-04-18T00:48:14.581Z,214.28
2023-04-18T00:49:14.585Z,214.24
2023-04-18T00:50:14.583Z,212.62
2023-04-18T00:51:14.614Z,210.80
2023-04-18T00:52:14.676Z,212.72
2023-04-18T00:53:14.683Z,213.94
2023-04-18T00:54:14.822Z,207.79
2023-04-18T00:55:14.722Z,211.44
2023-04-18T00:56:14.830Z,214.46
2023-04-18T00:57:14.799Z,215.38
2023-04-18T00:58:14.806Z,213.40
2023-04-18T00:59:14.857Z,216.38
2023-04-18T01:00:14.888Z,215.59
2023-04-18T01:01:14.974Z,213.83
2023-04-18T01:02:15.045Z,213.44
2023-04-18T01:03:15.092Z,214.00
2023-04-18T01:04:15.372Z,212.29
2023-04-18T01:05:15.100Z,213.73
2023-04-18T01:06:15.121Z,210.24
2023-04-18T01:07:15.108Z,209.51
2023-04-18T01:08:15.155Z,212.27
2023-04-18T01:09:15.209Z,211.13
2023-04-18T01:10:15.292Z,210.43
2023-04-18T01:11:15.288Z,209.95
2023-04-18T01:12:15.335Z,210.02
2023-04-18T01:13:15.325Z,213.35
2023-04-18T01:14:15.482Z,210.46
2023-04-18T01:15:15.358Z,208.69
2023-04-18T01:16:15.469Z,212.02
2023-04-18T01:17:15.450Z,214.00
2023-04-18T01:18:15.465Z,211.52
2023-04-18T01:19:15.496Z,210.88
2023-04-18T01:20:15.581Z,212.50
2023-04-18T01:21:15.572Z,211.84
2023-04-18T01:22:15.620Z,210.44
2023-04-18T01:23:15.673Z,211.96
2023-04-18T01:24:16.174Z,213.75
2023-04-18T01:25:15.712Z,211.65
2023-04-18T01:26:15.756Z,212.71
2023-04-18T01:27:15.800Z,211.36
2023-04-18T01:28:15.838Z,208.90
2023-04-18T01:29:15.923Z,211.04
2023-04-18T01:30:15.923Z,212.87
2023-04-18T01:31:15.978Z,206.95
2023-04-18T01:32:15.995Z,209.96
2023-04-18T01:33:15.993Z,212.97
2023-04-18T01:34:16.089Z,210.43
2023-04-18T01:35:16.123Z,213.37
2023-04-18T01:36:16.136Z,211.83
2023-04-18T01:37:16.184Z,214.16
2023-04-18T01:38:16.208Z,212.72
2023-04-18T01:39:16.261Z,208.89
2023-04-18T01:40:16.290Z,209.02
2023-04-18T01:41:16.325Z,210.23
2023-04-18T01:42:16.374Z,211.01
2023-04-18T01:43:16.438Z,211.65
2023-04-18T01:44:16.534Z,213.19
2023-04-18T01:45:16.520Z,211.63
2023-04-18T01:46:16.554Z,210.93
2023-04-18T01:47:16.598Z,209.71
2023-04-18T01:48:16.615Z,208.21
2023-04-18T01:49:16.660Z,208.41
2023-04-18T01:50:16.706Z,209.86
2023-04-18T01:51:16.736Z,210.28
2023-04-18T01:52:16.769Z,210.19
2023-04-18T01:53:16.813Z,209.43
2023-04-18T01:54:16.933Z,208.25
2023-04-18T01:55:16.902Z,211.86
2023-04-18T01:56:17.027Z,209.37
2023-04-18T01:57:16.978Z,209.57
2023-04-18T01:58:17.039Z,210.88
2023-04-18T01:59:17.099Z,211.09
2023-04-18T02:00:17.112Z,209.28
2023-04-18T02:01:17.193Z,209.15
2023-04-18T02:02:17.266Z,207.62
2023-04-18T02:03:17.359Z,210.97
2023-04-18T02:04:17.467Z,210.17
2023-04-18T02:05:17.322Z,209.23
2023-04-18T02:06:17.363Z,208.04
2023-04-18T02:07:17.377Z,207.63
2023-04-18T02:08:17.438Z,208.63
2023-04-18T02:09:17.469Z,207.43
2023-04-18T02:10:17.518Z,207.93
2023-04-18T02:11:17.617Z,208.52
2023-04-18T02:12:17.648Z,209.34
2023-04-18T02:13:17.633Z,207.89
2023-04-18T02:14:17.688Z,207.55
2023-04-18T02:15:17.752Z,211.63
2023-04-18T02:16:17.835Z,206.92
2023-04-18T02:17:17.842Z,208.56
2023-04-18T02:18:17.863Z,209.14
2023-04-18T02:19:17.912Z,210.77
2023-04-18T02:20:18.031Z,207.93
2023-04-18T02:21:17.992Z,208.37
2023-04-18T02:22:18.047Z,209.84
2023-04-18T02:23:18.087Z,208.61
2023-04-18T02:24:18.110Z,211.94
2023-04-18T02:25:18.163Z,210.04
2023-04-18T02:26:18.218Z,210.77
2023-04-18T02:27:18.240Z,208.37
2023-04-18T02:28:18.282Z,206.97
2023-04-18T02:29:18.332Z,206.80
2023-04-18T02:30:18.381Z,207.93
2023-04-18T02:31:18.455Z,208.82
2023-04-18T02:32:18.524Z,207.58
2023-04-18T02:33:18.494Z,206.56
2023-04-18T02:34:18.533Z,206.14
2023-04-18T02:35:18.575Z,203.48
2023-04-18T02:36:18.626Z,207.60
2023-04-18T02:37:18.658Z,206.93
2023-04-18T02:38:18.710Z,206.47
2023-04-18T02:39:18.774Z,207.14
2023-04-18T02:40:18.784Z,208.38
2023-04-18T02:41:18.834Z,205.50
2023-04-18T02:42:18.902Z,205.78
2023-04-18T02:43:18.915Z,204.19
2023-04-18T02:44:19.037Z,205.99
2023-04-18T02:45:18.970Z,210.91
2023-04-18T02:46:19.054Z,207.55
2023-04-18T02:47:19.064Z,207.07
2023-04-18T02:48:19.109Z,204.74
2023-04-18T02:49:19.153Z,207.01
2023-04-18T02:50:19.195Z,207.86
2023-04-18T02:51:19.236Z,203.55
2023-04-18T02:52:19.287Z,206.87
2023-04-18T02:53:19.317Z,205.02
2023-04-18T02:54:19.355Z,203.48
2023-04-18T02:55:19.443Z,204.85
2023-04-18T02:56:19.448Z,203.68
2023-04-18T02:57:19.503Z,206.33
2023-04-18T02:58:19.513Z,208.27
2023-04-18T02:59:19.584Z,205.25
2023-04-18T03:00:19.634Z,205.37
2023-04-18T03:01:19.723Z,207.30
2023-04-18T03:02:19.778Z,203.83
2023-04-18T03:03:19.900Z,205.59
2023-04-18T03:04:19.885Z,206.90
2023-04-18T03:05:19.856Z,206.90
2023-04-18T03:06:19.915Z,204.78
2023-04-18T03:07:19.962Z,204.28
2023-04-18T03:08:20.036Z,204.67
2023-04-18T03:09:20.066Z,203.32
2023-04-18T03:10:20.123Z,206.23
2023-04-18T03:11:20.201Z,203.92
2023-04-18T03:12:20.198Z,203.02
2023-04-18T03:13:20.262Z,204.05
2023-04-18T03:14:20.335Z,207.03
2023-04-18T03:15:20.359Z,204.22
2023-04-18T03:16:20.475Z,204.24
2023-04-18T03:17:20.566Z,203.18
2023-04-18T03:18:20.514Z,202.01
2023-04-18T03:19:20.532Z,206.18
2023-04-18T03:20:20.590Z,204.04
2023-04-18T03:21:20.622Z,205.42
2023-04-18T03:22:20.636Z,203.16
2023-04-18T03:23:20.708Z,205.86
2023-04-18T03:24:20.745Z,205.02
2023-04-18T03:25:20.800Z,200.55
2023-04-18T03:26:20.842Z,202.87
2023-04-18T03:27:20.882Z,205.32
2023-04-18T03:28:20.950Z,208.84
2023-04-18T03:29:20.950Z,202.08
2023-04-18T03:30:21.043Z,204.70
2023-04-18T03:31:21.097Z,205.01
2023-04-18T03:32:21.182Z,203.40
2023-04-18T03:33:21.137Z,201.59
2023-04-18T03:34:21.185Z,204.65
2023-04-18T03:35:21.241Z,204.78
2023-04-18T03:36:21.291Z,201.88
2023-04-18T03:37:21.336Z,203.87
2023-04-18T03:38:21.374Z,201.15
2023-04-18T03:39:21.386Z,204.17
2023-04-18T03:40:21.439Z,202.99
2023-04-18T03:41:21.480Z,203.45
2023-04-18T03:42:21.583Z,206.20
2023-04-18T03:43:21.576Z,203.88
2023-04-18T03:44:21.625Z,204.96
2023-04-18T03:45:21.688Z,202.17
2023-04-18T03:46:21.765Z,200.43
2023-04-18T03:47:21.775Z,202.89
2023-04-18T03:48:21.809Z,203.41
2023-04-18T03:49:21.846Z,202.58
2023-04-18T03:50:21.906Z,200.19
2023-04-18T03:51:21.998Z,202.68
2023-04-18T03:52:22.009Z,199.13
2023-04-18T03:53:22.037Z,201.42
2023-04-18T03:54:22.080Z,202.19
2023-04-18T03:55:22.134Z,200.58
2023-04-18T03:56:22.174Z,203.46
2023-04-18T03:57:22.193Z,204.77
2023-04-18T03:58:23.226Z,199.60
2023-04-18T03:59:22.313Z,201.06
2023-04-18T04:00:22.364Z,204.34
2023-04-18T04:01:22.429Z,204.28
2023-04-18T04:02:22.543Z,200.71
2023-04-18T04:03:22.737Z,197.05
2023-04-18T04:04:22.732Z,195.22
2023-04-18T04:05:22.607Z,186.96
2023-04-18T04:06:22.749Z,181.70
2023-04-18T04:07:22.719Z,174.54
2023-04-18T04:08:22.757Z,169.15
2023-04-18T04:09:22.835Z,163.47
2023-04-18T04:10:22.921Z,157.60
2023-04-18T04:11:22.952Z,150.03
2023-04-18T04:12:22.988Z,139.58
2023-04-18T04:13:23.047Z,135.79
2023-04-18T04:14:23.041Z,127.62
2023-04-18T04:15:23.057Z,125.19
2023-04-18T04:16:23.098Z,118.49
2023-04-18T04:17:23.046Z,116.61
2023-04-18T04:18:23.058Z,113.48
2023-04-18T04:19:23.034Z,109.90
2023-04-18T04:20:23.056Z,103.26
2023-04-18T04:21:23.044Z,100.05
2023-04-18T04:22:23.021Z,89.87
2023-04-18T04:23:23.034Z,94.12
2023-04-18T04:24:23.005Z,85.00
2023-04-18T04:25:23.024Z,82.32
2023-04-18T04:26:23.032Z,78.03
2023-04-18T04:27:23.036Z,78.68
2023-04-18T04:28:23.044Z,75.18
2023-04-18T04:29:23.034Z,71.38
2023-04-18T04:30:23.004Z,70.76
2023-04-18T04:31:23.064Z,69.66
2023-04-18T04:32:23.104Z,67.18
2023-04-18T04:33:23.023Z,68.09
2023-04-18T04:34:23.029Z,72.48
2023-04-18T04:35:23.079Z,74.41
2023-04-18T04:36:23.174Z,72.59
2023-04-18T04:37:23.200Z,73.55
2023-04-18T04:38:23.273Z,77.58
2023-04-18T04:39:23.324Z,78.70
2023-04-18T04:40:23.389Z,79.93
2023-04-18T04:41:23.410Z,77.07
2023-04-18T04:42:23.492Z,82.71
2023-04-18T04:43:23.540Z,81.57
2023-04-18T04:44:23.628Z,82.88
2023-04-18T04:45:23.680Z,81.11
2023-04-18T04:46:23.753Z,82.08
2023-04-18T04:47:23.788Z,88.92
2023-04-18T04:48:23.856Z,88.52
2023-04-18T04:49:23.878Z,89.94
2023-04-18T04:50:23.959Z,91.00
2023-04-18T04:51:24.072Z,90.84
2023-04-18T04:52:24.074Z,92.02
2023-04-18T04:53:24.211Z,94.98
2023-04-18T04:54:24.232Z,94.22
2023-04-18T04:55:24.348Z,93.22
2023-04-18T04:56:24.350Z,96.23
2023-04-18T04:57:24.345Z,96.28
2023-04-18T04:58:24.458Z,99.13
2023-04-18T04:59:24.503Z,97.12
2023-04-18T05:00:24.640Z,100.76
2023-04-18T05:01:24.662Z,99.47
2023-04-18T05:02:24.824Z,99.74
2023-04-18T05:03:24.846Z,99.92
2023-04-18T05:04:24.920Z,102.34
2023-04-18T05:05:24.804Z,100.89
2023-04-18T05:06:24.903Z,99.89
2023-04-18T05:07:24.921Z,104.99
2023-04-18T05:08:24.972Z,106.44
2023-04-18T05:09:25.056Z,106.55
2023-04-18T05:10:25.085Z,108.77
2023-04-18T05:11:25.180Z,105.45
2023-04-18T05:12:25.226Z,108.93
2023-04-18T05:13:25.272Z,110.60
2023-04-18T05:14:25.298Z,109.51
2023-04-18T05:15:25.353Z,111.95
2023-04-18T05:16:25.456Z,114.24
2023-04-18T05:17:25.484Z,112.52
2023-04-18T05:18:25.605Z,109.92
2023-04-18T05:19:25.610Z,114.58
2023-04-18T05:20:25.670Z,112.98
2023-04-18T05:21:25.707Z,109.08
2023-04-18T05:22:25.748Z,110.56
2023-04-18T05:23:25.864Z,115.31
2023-04-18T05:24:25.894Z,115.94
2023-04-18T05:25:25.954Z,113.18
2023-04-18T05:26:26.020Z,113.81
2023-04-18T05:27:26.062Z,114.07
2023-04-18T05:28:26.149Z,113.18
2023-04-18T05:29:26.204Z,115.28
2023-04-18T05:30:26.248Z,113.33
2023-04-18T05:31:26.313Z,116.34
2023-04-18T05:32:26.381Z,117.91
2023-04-18T05:33:26.423Z,115.46
2023-04-18T05:34:26.494Z,120.08
2023-04-18T05:35:26.554Z,118.59
2023-04-18T05:36:26.597Z,115.60
2023-04-18T05:37:26.702Z,119.72
2023-04-18T05:38:26.713Z,113.59
2023-04-18T05:39:26.797Z,112.16
2023-04-18T05:40:26.800Z,118.94
2023-04-18T05:41:26.860Z,119.43
2023-04-18T05:42:26.906Z,120.77
2023-04-18T05:43:26.975Z,117.41
2023-04-18T05:44:27.032Z,113.35
2023-04-18T05:45:27.066Z,110.37
2023-04-18T05:46:27.157Z,107.71
2023-04-18T05:47:27.216Z,110.40
2023-04-18T05:48:27.226Z,112.41
2023-04-18T05:49:27.251Z,113.63
2023-04-18T05:50:27.343Z,113.95
2023-04-18T05:51:27.592Z,119.99
2023-04-18T05:52:27.356Z,119.35
2023-04-18T05:53:27.405Z,126.01
2023-04-18T05:54:27.451Z,126.66
2023-04-18T05:55:27.441Z,130.41
2023-04-18T05:56:27.437Z,132.68
2023-04-18T05:57:27.593Z,133.48
2023-04-18T05:58:27.532Z,133.06
2023-04-18T05:59:27.600Z,139.18
2023-04-18T06:00:27.546Z,139.70
2023-04-18T06:01:27.617Z,138.99
2023-04-18T06:02:27.770Z,137.82
2023-04-18T06:03:27.803Z,141.02
2023-04-18T06:04:27.807Z,140.05
2023-04-18T06:05:28.081Z,144.17
2023-04-18T06:06:27.711Z,143.49
2023-04-18T06:07:27.699Z,142.89
2023-04-18T06:08:27.690Z,140.22
2023-04-18T06:09:27.712Z,146.43
2023-04-18T06:10:27.772Z,142.04
2023-04-18T06:11:27.752Z,143.99
2023-04-18T06:12:27.888Z,144.18
2023-04-18T06:13:27.802Z,142.97
2023-04-18T06:14:27.794Z,142.03
2023-04-18T06:15:28.057Z,143.15
2023-04-18T06:16:27.880Z,143.09
2023-04-18T06:17:27.816Z,145.31
2023-04-18T06:18:27.770Z,143.36
2023-04-18T06:19:27.826Z,143.00
2023-04-18T06:20:27.820Z,141.80
2023-04-18T06:21:27.814Z,140.46
2023-04-18T06:22:27.798Z,142.33
2023-04-18T06:23:27.791Z,139.07
2023-04-18T06:24:28.326Z,140.90
2023-04-18T06:25:27.816Z,140.85
2023-04-18T06:26:27.812Z,141.90
2023-04-18T06:27:31.554Z,139.95
2023-04-18T06:28:28.297Z,139.99
2023-04-18T06:29:27.761Z,138.17
2023-04-18T06:30:27.783Z,136.11
2023-04-18T06:31:28.159Z,141.99
2023-04-18T06:32:28.165Z,137.30
2023-04-18T06:33:28.126Z,140.12
2023-04-18T06:34:27.721Z,137.08
2023-04-18T06:35:28.148Z,135.39
2023-04-18T06:36:27.749Z,129.40
2023-04-18T06:37:27.708Z,132.05
2023-04-18T06:38:27.707Z,134.20
2023-04-18T06:39:27.752Z,131.07
2023-04-18T06:40:27.720Z,127.34
2023-04-18T06:41:27.716Z,129.11
2023-04-18T06:42:27.695Z,126.98
2023-04-18T06:43:27.732Z,126.21
2023-04-18T06:44:27.718Z,125.98
2023-04-18T06:45:27.761Z,125.59
2023-04-18T06:46:27.772Z,124.33
2023-04-18T06:47:27.682Z,123.18
2023-04-18T06:48:28.132Z,120.55
2023-04-18T06:49:27.668Z,121.84
2023-04-18T06:50:27.649Z,121.44
2023-04-18T06:51:27.715Z,119.47
2023-04-18T06:52:27.637Z,117.80
2023-04-18T06:53:27.650Z,115.21
2023-04-18T06:54:27.654Z,114.59
2023-04-18T06:55:27.607Z,113.81
2023-04-18T06:56:27.609Z,114.38
2023-04-18T06:57:29.041Z,112.24
2023-04-18T06:58:27.629Z,108.95
2023-04-18T06:59:27.588Z,113.01
2023-04-18T07:00:27.599Z,108.81
2023-04-18T07:01:27.609Z,106.43
2023-04-18T07:02:27.604Z,105.65
2023-04-18T07:03:27.661Z,106.81
2023-04-18T07:04:27.670Z,107.75
2023-04-18T07:05:27.677Z,102.88
2023-04-18T07:06:27.680Z,105.60
2023-04-18T07:07:27.750Z,103.28
2023-04-18T07:08:27.798Z,103.72
2023-04-18T07:09:27.859Z,105.12
2023-04-18T07:10:27.914Z,103.81
2023-04-18T07:11:27.918Z,104.74
2023-04-18T07:12:28.136Z,104.74
2023-04-18T07:13:27.998Z,105.38
2023-04-18T07:14:28.039Z,105.08
2023-04-18T07:15:28.108Z,105.61
2023-04-18T07:16:28.315Z,110.69
2023-04-18T07:17:28.172Z,107.00
2023-04-18T07:18:37.635Z,109.09
2023-04-18T07:19:29.150Z,109.27
2023-04-18T07:20:28.141Z,109.00
2023-04-18T07:21:28.146Z,109.13
2023-04-18T07:22:28.144Z,112.15
2023-04-18T07:23:28.099Z,111.49
2023-04-18T07:24:28.105Z,114.09
2023-04-18T07:25:28.107Z,115.76
2023-04-18T07:26:28.075Z,116.36
2023-04-18T07:27:28.077Z,116.53
2023-04-18T07:28:28.094Z,116.83
2023-04-18T07:29:28.093Z,115.60
2023-04-18T07:30:28.066Z,118.57
2023-04-18T07:31:28.087Z,116.65
2023-04-18T07:32:28.151Z,118.62
2023-04-18T07:33:28.089Z,124.34
2023-04-18T07:34:28.040Z,119.44
2023-04-18T07:35:28.026Z,119.86
2023-04-18T07:36:28.139Z,125.56
2023-04-18T07:37:28.020Z,132.47
2023-04-18T07:38:27.990Z,132.47
2023-04-18T07:39:28.008Z,135.24
2023-04-18T07:40:28.039Z,137.01
2023-04-18T07:41:28.165Z,140.69
2023-04-18T07:42:28.026Z,144.36
2023-04-18T07:43:28.106Z,146.44
2023-04-18T07:44:28.152Z,148.14
2023-04-18T07:45:28.227Z,157.99
2023-04-18T07:46:28.244Z,162.00
2023-04-18T07:47:30.316Z,165.27
2023-04-18T07:48:28.755Z,168.32
2023-04-18T07:49:28.722Z,173.35
2023-04-18T07:50:28.554Z,173.15
2023-04-18T07:51:28.519Z,177.67
2023-04-18T07:52:28.612Z,179.57
2023-04-18T07:53:28.616Z,184.03
2023-04-18T07:54:28.621Z,188.94
2023-04-18T07:55:28.735Z,184.22
2023-04-18T07:56:28.632Z,189.87
2023-04-18T07:57:28.645Z,192.44
2023-04-18T07:58:28.628Z,193.12
2023-04-18T07:59:28.611Z,196.83
2023-04-18T08:00:28.664Z,197.48
2023-04-18T08:01:28.630Z,197.09
2023-04-18T08:02:28.859Z,198.43
2023-04-18T08:03:28.837Z,201.20
2023-04-18T08:04:30.359Z,202.86
2023-04-18T08:05:28.703Z,205.35
2023-04-18T08:06:28.658Z,205.42
2023-04-18T08:07:28.660Z,198.80
2023-04-18T08:08:28.640Z,198.77
2023-04-18T08:09:28.673Z,200.87
2023-04-18T08:10:28.618Z,198.22
2023-04-18T08:11:28.643Z,196.93
2023-04-18T08:12:28.672Z,185.67
2023-04-18T08:13:28.700Z,186.46
2023-04-18T08:14:28.778Z,185.41
2023-04-18T08:15:28.822Z,181.46
2023-04-18T08:16:28.897Z,171.11
2023-04-18T08:17:28.944Z,164.84
2023-04-18T08:18:29.005Z,156.64
2023-04-18T08:19:29.206Z,148.17
2023-04-18T08:20:29.088Z,143.55
2023-04-18T08:21:29.112Z,144.41
2023-04-18T08:22:29.197Z,142.24
2023-04-18T08:23:29.185Z,145.18
2023-04-18T08:24:29.284Z,151.96
2023-04-18T08:25:29.359Z,160.12
2023-04-18T08:26:29.350Z,145.15
2023-04-18T08:27:29.454Z,120.78
2023-04-18T08:28:29.474Z,106.12
2023-04-18T08:29:29.574Z,97.78
2023-04-18T08:30:29.636Z,77.10
2023-04-18T08:31:29.692Z,55.19
2023-04-18T08:32:29.723Z,49.32
2023-04-18T08:33:29.711Z,41.94
2023-04-18T08:34:29.705Z,26.43
2023-04-18T08:35:29.726Z,23.89
2023-04-18T08:36:29.718Z,19.79
2023-04-18T08:37:29.683Z,26.59
2023-04-18T08:38:29.741Z,24.52
2023-04-18T08:39:29.684Z,25.00
2023-04-18T08:40:29.750Z,27.20
2023-04-18T08:41:29.742Z,25.35
2023-04-18T08:42:29.723Z,25.00
2023-04-18T08:43:29.741Z,26.85
2023-04-18T08:44:29.757Z,36.36
2023-04-18T08:45:29.752Z,43.25
2023-04-18T08:46:29.793Z,49.81
2023-04-18T08:47:29.816Z,50.94
2023-04-18T08:48:29.709Z,47.63
2023-04-18T08:49:29.722Z,45.63
2023-04-18T08:50:29.730Z,47.70
2023-04-18T08:51:29.691Z,48.93
2023-04-18T08:52:29.706Z,48.74
2023-04-18T08:53:29.738Z,37.48
2023-04-18T08:54:29.729Z,34.08
2023-04-18T08:55:29.712Z,30.77
2023-04-18T08:56:29.696Z,28.52
2023-04-18T08:57:29.714Z,29.34
2023-04-18T08:58:29.719Z,29.25
2023-04-18T08:59:29.668Z,27.95
2023-04-18T09:00:29.742Z,24.54
2023-04-18T09:01:29.808Z,27.39
2023-04-18T09:02:29.859Z,26.40
2023-04-18T09:03:29.837Z,25.00
2023-04-18T09:04:29.980Z,27.02
2023-04-18T09:05:29.818Z,32.72
2023-04-18T09:06:29.869Z,28.56
2023-04-18T09:07:29.864Z,29.22
2023-04-18T09:08:29.789Z,36.14
2023-04-18T09:09:30.201Z,34.40
2023-04-18T09:10:29.805Z,36.33
2023-04-18T09:11:29.859Z,38.05
2023-04-18T09:12:29.802Z,40.09
2023-04-18T09:13:29.848Z,40.79
2023-04-18T09:14:30.229Z,44.10
2023-04-18T09:15:30.023Z,49.12
2023-04-18T09:16:30.054Z,49.98
2023-04-18T09:17:30.136Z,52.93
2023-04-18T09:18:30.126Z,54.58
2023-04-18T09:19:30.222Z,56.22
2023-04-18T09:20:30.272Z,57.69
2023-04-18T09:21:30.350Z,60.58
2023-04-18T09:22:30.449Z,60.74
2023-04-18T09:23:30.457Z,64.46
2023-04-18T09:24:30.495Z,66.34
2023-04-18T09:25:30.512Z,64.66
2023-04-18T09:26:30.557Z,60.79
2023-04-18T09:27:30.586Z,65.50
2023-04-18T09:28:30.644Z,66.74
2023-04-18T09:29:30.705Z,67.09
2023-04-18T09:30:30.857Z,70.35
2023-04-18T09:31:30.858Z,69.52
2023-04-18T09:32:30.855Z,66.41
2023-04-18T09:33:30.875Z,75.29
2023-04-18T09:34:30.936Z,83.31
2023-04-18T09:35:31.006Z,74.90
2023-04-18T09:36:31.330Z,80.11
2023-04-18T09:37:31.107Z,84.26
2023-04-18T09:38:31.169Z,84.56
2023-04-18T09:39:31.234Z,88.20
2023-04-18T09:40:31.334Z,89.45
2023-04-18T09:41:31.703Z,89.76
2023-04-18T09:42:31.520Z,85.93
2023-04-18T09:43:31.466Z,86.56
2023-04-18T09:44:31.509Z,86.96
2023-04-18T09:45:31.640Z,85.35
2023-04-18T09:46:31.736Z,87.62
2023-04-18T09:47:32.262Z,85.93
2023-04-18T09:48:31.783Z,85.67
2023-04-18T09:49:31.827Z,92.28
2023-04-18T09:50:31.865Z,91.01
2023-04-18T09:51:32.006Z,87.22
2023-04-18T09:52:32.035Z,82.31
2023-04-18T09:53:32.095Z,82.09
2023-04-18T09:54:32.157Z,81.56
2023-04-18T09:55:32.236Z,84.64
2023-04-18T09:56:32.432Z,82.39
2023-04-18T09:57:32.296Z,82.62
2023-04-18T09:58:32.382Z,80.04
2023-04-18T09:59:32.404Z,79.40
2023-04-18T10:00:32.489Z,74.85
2023-04-18T10:01:32.565Z,76.12
2023-04-18T10:02:32.703Z,71.83
2023-04-18T10:03:32.777Z,72.37
2023-04-18T10:04:32.754Z,70.28
2023-04-18T10:05:32.756Z,65.43
2023-04-18T10:06:32.838Z,65.67
2023-04-18T10:07:32.896Z,62.52
2023-04-18T10:08:32.942Z,63.69
2023-04-18T10:09:33.013Z,61.84
2023-04-18T10:10:33.077Z,53.28
2023-04-18T10:11:33.137Z,56.84
2023-04-18T10:12:33.255Z,54.12
2023-04-18T10:13:33.266Z,56.97
2023-04-18T10:14:33.305Z,58.28
2023-04-18T10:15:33.756Z,56.37
2023-04-18T10:16:34.967Z,56.68
2023-04-18T10:17:33.405Z,57.20
2023-04-18T10:18:33.411Z,55.77
2023-04-18T10:19:33.403Z,49.89
2023-04-18T10:20:33.463Z,47.67
2023-04-18T10:21:33.410Z,52.41
2023-04-18T10:22:33.715Z,49.51
2023-04-18T10:23:33.357Z,50.54
2023-04-18T10:24:33.336Z,48.14
2023-04-18T10:25:33.357Z,42.69
2023-04-18T10:26:33.353Z,25.00
2023-04-18T10:27:33.321Z,31.13
2023-04-18T10:28:33.370Z,23.87
2023-04-18T10:29:33.299Z,12.10
2023-04-18T10:30:33.312Z,5.51
2023-04-18T10:31:33.355Z,9.45
2023-04-18T10:32:33.736Z,20.71
2023-04-18T10:33:34.114Z,28.92
2023-04-18T10:34:33.271Z,33.58
2023-04-18T10:35:33.435Z,35.11
2023-04-18T10:36:33.267Z,38.59
2023-04-18T10:37:33.253Z,47.21
2023-04-18T10:38:33.258Z,53.86
2023-04-18T10:39:33.274Z,57.92
2023-04-18T10:40:33.250Z,58.60
2023-04-18T10:41:33.227Z,61.27
2023-04-18T10:42:33.739Z,62.30
2023-04-18T10:43:33.234Z,65.62
2023-04-18T10:44:33.220Z,68.01
2023-04-18T10:45:33.202Z,67.28
2023-04-18T10:46:33.208Z,66.37
2023-04-18T10:47:33.496Z,68.56
2023-04-18T10:48:33.182Z,68.41
2023-04-18T10:49:33.207Z,68.91
2023-04-18T10:50:33.190Z,71.32
2023-04-18T10:51:33.137Z,69.89
2023-04-18T10:52:33.146Z,71.75
2023-04-18T10:53:33.255Z,76.45
2023-04-18T10:54:33.162Z,79.75
2023-04-18T10:55:33.139Z,78.12
2023-04-18T10:56:33.197Z,80.37
2023-04-18T10:57:33.109Z,81.01
2023-04-18T10:58:33.118Z,81.85
2023-04-18T10:59:33.086Z,80.46
2023-04-18T11:00:33.115Z,81.06
2023-04-18T11:01:33.361Z,80.98
2023-04-18T11:02:33.199Z,78.99
2023-04-18T11:03:33.136Z,85.29
2023-04-18T11:04:33.155Z,78.98
2023-04-18T11:05:33.138Z,80.81
2023-04-18T11:06:33.190Z,82.68
2023-04-18T11:07:33.185Z,82.81
2023-04-18T11:08:33.272Z,83.84
2023-04-18T11:09:33.255Z,80.67
2023-04-18T11:10:33.294Z,78.32
2023-04-18T11:11:33.339Z,83.12
2023-04-18T11:12:33.373Z,83.80
2023-04-18T11:13:33.366Z,82.27
2023-04-18T11:14:33.401Z,81.79
2023-04-18T11:15:33.411Z,78.00
2023-04-18T11:16:33.458Z,81.25
2023-04-18T11:17:33.463Z,83.69
2023-04-18T11:18:33.485Z,83.59
2023-04-18T11:19:33.736Z,86.18
2023-04-18T11:20:33.492Z,87.43
2023-04-18T11:21:33.558Z,81.63
2023-04-18T11:22:33.612Z,84.73
2023-04-18T11:23:33.629Z,82.14
2023-04-18T11:24:33.780Z,82.01
2023-04-18T11:25:33.697Z,77.89
2023-04-18T11:26:34.297Z,67.54
2023-04-18T11:27:33.792Z,61.54
2023-04-18T11:28:33.838Z,57.80
2023-04-18T11:29:33.933Z,52.55
2023-04-18T11:30:33.968Z,49.12
2023-04-18T11:31:34.032Z,41.88
2023-04-18T11:32:34.376Z,40.07
2023-04-18T11:33:34.112Z,35.58
2023-04-18T11:34:34.155Z,25.86
2023-04-18T11:35:34.239Z,25.30
2023-04-18T11:36:34.221Z,24.73
2023-04-18T11:37:34.240Z,25.77
2023-04-18T11:38:34.252Z,25.00
2023-04-18T11:39:34.241Z,25.53
2023-04-18T11:40:34.251Z,25.00
2023-04-18T11:41:34.295Z,28.16
2023-04-18T11:42:34.317Z,25.09
2023-04-18T11:43:34.306Z,25.70
2023-04-18T11:44:36.091Z,25.00
2023-04-18T11:45:34.303Z,27.65
2023-04-18T11:46:34.438Z,26.47
2023-04-18T11:47:34.373Z,25.00
2023-04-18T11:48:34.315Z,25.13
2023-04-18T11:49:34.358Z,25.91
2023-04-18T11:50:34.331Z,26.64
2023-04-18T11:51:34.337Z,25.00
2023-04-18T11:52:34.394Z,24.89
2023-04-18T11:53:34.357Z,25.67
2023-04-18T11:54:34.339Z,25.61
2023-04-18T11:55:34.352Z,25.00
2023-04-18T11:56:36.646Z,26.55
2023-04-18T11:57:34.469Z,27.63
2023-04-18T11:58:34.448Z,31.87
2023-04-18T11:59:34.454Z,41.57
2023-04-18T12:00:34.457Z,53.70
2023-04-18T12:01:34.502Z,59.73
2023-04-18T12:02:34.563Z,62.70
2023-04-18T12:03:34.663Z,64.94
2023-04-18T12:04:34.704Z,71.29
2023-04-18T12:05:34.757Z,78.98
2023-04-18T12:06:34.457Z,93.60
2023-04-18T12:07:34.499Z,108.76
2023-04-18T12:08:34.503Z,112.98
2023-04-18T12:09:34.495Z,114.65
2023-04-18T12:10:34.513Z,116.51
2023-04-18T12:11:34.548Z,117.45
2023-04-18T12:12:34.574Z,119.35
2023-04-18T12:13:34.588Z,123.37
2023-04-18T12:14:34.588Z,128.25
2023-04-18T12:15:34.652Z,129.74
2023-04-18T12:16:34.714Z,134.31
2023-04-18T12:17:34.688Z,134.88
2023-04-18T12:18:34.765Z,138.28
2023-04-18T12:19:34.803Z,140.57
2023-04-18T12:20:34.931Z,143.95
2023-04-18T12:21:34.870Z,146.45
2023-04-18T12:22:34.875Z,149.70
2023-04-18T12:23:34.927Z,151.56
2023-04-18T12:24:34.955Z,152.57
2023-04-18T12:25:35.065Z,155.00
2023-04-18T12:26:35.067Z,159.76
2023-04-18T12:27:35.152Z,159.25
2023-04-18T12:28:35.277Z,165.49
2023-04-18T12:29:35.305Z,170.45
2023-04-18T12:30:37.577Z,169.76
2023-04-18T12:31:35.543Z,168.71
2023-04-18T12:32:35.589Z,170.12
2023-04-18T12:33:35.639Z,172.39
2023-04-18T12:34:35.678Z,175.76
2023-04-18T12:35:35.724Z,177.74
2023-04-18T12:36:35.804Z,179.85